sensor_id;sensor_type;location;lat;lon;timestamp;P1;durP1;ratioP1;P2;durP2;ratioP2
36815;SDS011;22760;51.910;4.474;2022-08-03T00:02:05;9.68;;;1.83;;
36815;SDS011;22760;51.910;4.474;2022-08-03T00:04:32;8.68;;;1.90;;
36815;SDS011;22760;51.910;4.474;2022-08-03T00:06:58;7.32;;;1.67;;
36815;SDS011;22760;51.910;4.474;2022-08-03T00:09:25;7.45;;;2.10;;
36815;SDS011;22760;51.910;4.474;2022-08-03T00:11:52;10.75;;;1.98;;
36815;SDS011;22760;51.910;4.474;2022-08-03T00:14:19;9.82;;;2.30;;
36815;SDS011;22760;51.910;4.474;2022-08-03T00:16:47;4.85;;;1.70;;
36815;SDS011;22760;51.910;4.474;2022-08-03T00:19:13;9.50;;;2.10;;
36815;SDS011;22760;51.910;4.474;2022-08-03T00:21:40;8.93;;;1.70;;
36815;SDS011;22760;51.910;4.474;2022-08-03T00:24:07;6.13;;;1.75;;
36815;SDS011;22760;51.910;4.474;2022-08-03T00:26:34;8.27;;;2.00;;
36815;SDS011;22760;51.910;4.474;2022-08-03T00:29:00;12.55;;;2.25;;
36815;SDS011;22760;51.910;4.474;2022-08-03T00:31:27;11.80;;;2.05;;
36815;SDS011;22760;51.910;4.474;2022-08-03T00:33:56;8.77;;;2.38;;
36815;SDS011;22760;51.910;4.474;2022-08-03T00:36:22;10.27;;;2.78;;
36815;SDS011;22760;51.910;4.474;2022-08-03T00:38:49;13.13;;;2.60;;
36815;SDS011;22760;51.910;4.474;2022-08-03T00:41:16;6.72;;;2.45;;
36815;SDS011;22760;51.910;4.474;2022-08-03T00:43:43;9.35;;;2.20;;
36815;SDS011;22760;51.910;4.474;2022-08-03T00:46:11;8.15;;;2.50;;
36815;SDS011;22760;51.910;4.474;2022-08-03T00:48:38;9.77;;;2.72;;
36815;SDS011;22760;51.910;4.474;2022-08-03T00:51:07;8.02;;;2.28;;
36815;SDS011;22760;51.910;4.474;2022-08-03T00:53:34;9.73;;;2.92;;
36815;SDS011;22760;51.910;4.474;2022-08-03T00:56:01;10.25;;;2.67;;
36815;SDS011;22760;51.910;4.474;2022-08-03T00:58:28;9.63;;;2.88;;
36815;SDS011;22760;51.910;4.474;2022-08-03T01:00:55;11.15;;;2.90;;
36815;SDS011;22760;51.910;4.474;2022-08-03T01:03:21;12.52;;;2.92;;
36815;SDS011;22760;51.910;4.474;2022-08-03T01:05:50;11.85;;;2.40;;
36815;SDS011;22760;51.910;4.474;2022-08-03T01:08:26;6.53;;;2.30;;
36815;SDS011;22760;51.910;4.474;2022-08-03T01:11:01;11.45;;;1.95;;
36815;SDS011;22760;51.910;4.474;2022-08-03T01:13:33;7.32;;;2.25;;
36815;SDS011;22760;51.910;4.474;2022-08-03T01:16:08;9.60;;;2.30;;
36815;SDS011;22760;51.910;4.474;2022-08-03T01:18:40;11.10;;;3.00;;
36815;SDS011;22760;51.910;4.474;2022-08-03T01:21:13;11.23;;;2.63;;
36815;SDS011;22760;51.910;4.474;2022-08-03T01:23:50;11.65;;;2.83;;
36815;SDS011;22760;51.910;4.474;2022-08-03T01:26:33;8.63;;;2.85;;
36815;SDS011;22760;51.910;4.474;2022-08-03T01:29:18;11.75;;;2.75;;
36815;SDS011;22760;51.910;4.474;2022-08-03T01:32:05;14.77;;;2.95;;
36815;SDS011;22760;51.910;4.474;2022-08-03T01:34:39;9.73;;;2.58;;
36815;SDS011;22760;51.910;4.474;2022-08-03T01:37:09;13.82;;;2.72;;
36815;SDS011;22760;51.910;4.474;2022-08-03T01:39:37;12.82;;;3.38;;
36815;SDS011;22760;51.910;4.474;2022-08-03T01:42:06;16.77;;;2.60;;
36815;SDS011;22760;51.910;4.474;2022-08-03T01:44:37;20.42;;;3.03;;
36815;SDS011;22760;51.910;4.474;2022-08-03T01:47:07;12.43;;;2.78;;
36815;SDS011;22760;51.910;4.474;2022-08-03T01:49:36;10.20;;;2.65;;
36815;SDS011;22760;51.910;4.474;2022-08-03T01:52:05;13.35;;;2.80;;
36815;SDS011;22760;51.910;4.474;2022-08-03T01:54:41;12.88;;;3.20;;
36815;SDS011;22760;51.910;4.474;2022-08-03T01:57:10;12.40;;;3.15;;
36815;SDS011;22760;51.910;4.474;2022-08-03T01:59:39;7.43;;;2.47;;
36815;SDS011;22760;51.910;4.474;2022-08-03T02:02:08;11.70;;;3.20;;
36815;SDS011;22760;51.910;4.474;2022-08-03T02:04:39;8.47;;;2.37;;
36815;SDS011;22760;51.910;4.474;2022-08-03T02:07:07;11.30;;;2.70;;
36815;SDS011;22760;51.910;4.474;2022-08-03T02:09:36;10.90;;;2.85;;
36815;SDS011;22760;51.910;4.474;2022-08-03T02:12:05;9.32;;;2.35;;
36815;SDS011;22760;51.910;4.474;2022-08-03T02:14:34;7.47;;;2.20;;
36815;SDS011;22760;51.910;4.474;2022-08-03T02:17:03;16.77;;;2.88;;
36815;SDS011;22760;51.910;4.474;2022-08-03T02:19:31;10.82;;;2.40;;
36815;SDS011;22760;51.910;4.474;2022-08-03T02:21:59;9.23;;;2.38;;
36815;SDS011;22760;51.910;4.474;2022-08-03T02:24:27;7.97;;;2.20;;
36815;SDS011;22760;51.910;4.474;2022-08-03T02:26:54;9.63;;;2.17;;
36815;SDS011;22760;51.910;4.474;2022-08-03T02:29:22;9.00;;;2.42;;
36815;SDS011;22760;51.910;4.474;2022-08-03T02:31:51;10.00;;;2.50;;
36815;SDS011;22760;51.910;4.474;2022-08-03T02:34:22;11.25;;;2.78;;
36815;SDS011;22760;51.910;4.474;2022-08-03T02:36:53;19.10;;;2.97;;
36815;SDS011;22760;51.910;4.474;2022-08-03T02:39:24;12.57;;;2.70;;
36815;SDS011;22760;51.910;4.474;2022-08-03T02:41:55;18.80;;;4.00;;
36815;SDS011;22760;51.910;4.474;2022-08-03T02:44:26;7.45;;;2.15;;
36815;SDS011;22760;51.910;4.474;2022-08-03T02:46:57;11.98;;;3.05;;
36815;SDS011;22760;51.910;4.474;2022-08-03T02:49:29;5.97;;;2.28;;
36815;SDS011;22760;51.910;4.474;2022-08-03T02:51:57;11.02;;;2.60;;
36815;SDS011;22760;51.910;4.474;2022-08-03T02:54:26;14.75;;;3.03;;
36815;SDS011;22760;51.910;4.474;2022-08-03T02:56:54;10.20;;;2.55;;
36815;SDS011;22760;51.910;4.474;2022-08-03T02:59:22;13.10;;;2.88;;
36815;SDS011;22760;51.910;4.474;2022-08-03T03:01:50;13.15;;;2.88;;
36815;SDS011;22760;51.910;4.474;2022-08-03T03:04:20;11.50;;;3.13;;
36815;SDS011;22760;51.910;4.474;2022-08-03T03:06:49;16.23;;;2.53;;
36815;SDS011;22760;51.910;4.474;2022-08-03T03:09:17;11.23;;;2.92;;
36815;SDS011;22760;51.910;4.474;2022-08-03T03:11:44;16.23;;;3.58;;
36815;SDS011;22760;51.910;4.474;2022-08-03T03:14:12;12.98;;;2.92;;
36815;SDS011;22760;51.910;4.474;2022-08-03T03:16:40;12.05;;;2.97;;
36815;SDS011;22760;51.910;4.474;2022-08-03T03:19:09;7.30;;;2.25;;
36815;SDS011;22760;51.910;4.474;2022-08-03T03:21:38;13.15;;;2.60;;
36815;SDS011;22760;51.910;4.474;2022-08-03T03:24:06;13.27;;;2.70;;
36815;SDS011;22760;51.910;4.474;2022-08-03T03:26:35;17.35;;;2.75;;
36815;SDS011;22760;51.910;4.474;2022-08-03T03:29:02;14.55;;;2.97;;
36815;SDS011;22760;51.910;4.474;2022-08-03T03:31:29;13.55;;;3.03;;
36815;SDS011;22760;51.910;4.474;2022-08-03T03:33:56;12.55;;;2.50;;
36815;SDS011;22760;51.910;4.474;2022-08-03T03:36:24;17.48;;;2.97;;
36815;SDS011;22760;51.910;4.474;2022-08-03T03:38:51;8.55;;;2.53;;
36815;SDS011;22760;51.910;4.474;2022-08-03T03:41:19;15.05;;;4.03;;
36815;SDS011;22760;51.910;4.474;2022-08-03T03:43:47;15.10;;;3.50;;
36815;SDS011;22760;51.910;4.474;2022-08-03T03:46:14;16.20;;;3.80;;
36815;SDS011;22760;51.910;4.474;2022-08-03T03:48:41;11.90;;;3.25;;
36815;SDS011;22760;51.910;4.474;2022-08-03T03:51:09;10.90;;;3.72;;
36815;SDS011;22760;51.910;4.474;2022-08-03T03:53:36;10.20;;;2.70;;
36815;SDS011;22760;51.910;4.474;2022-08-03T03:56:03;12.70;;;3.03;;
36815;SDS011;22760;51.910;4.474;2022-08-03T03:58:31;17.42;;;3.13;;
36815;SDS011;22760;51.910;4.474;2022-08-03T04:00:58;13.65;;;3.25;;
36815;SDS011;22760;51.910;4.474;2022-08-03T04:03:25;12.07;;;2.63;;
36815;SDS011;22760;51.910;4.474;2022-08-03T04:05:52;17.98;;;2.90;;
36815;SDS011;22760;51.910;4.474;2022-08-03T04:08:36;10.88;;;2.67;;
36815;SDS011;22760;51.910;4.474;2022-08-03T04:11:21;12.48;;;3.30;;
36815;SDS011;22760;51.910;4.474;2022-08-03T04:13:54;13.75;;;3.35;;
36815;SDS011;22760;51.910;4.474;2022-08-03T04:16:23;12.77;;;2.78;;
36815;SDS011;22760;51.910;4.474;2022-08-03T04:18:54;16.75;;;3.47;;
36815;SDS011;22760;51.910;4.474;2022-08-03T04:21:24;14.02;;;2.90;;
36815;SDS011;22760;51.910;4.474;2022-08-03T04:23:54;15.45;;;3.15;;
36815;SDS011;22760;51.910;4.474;2022-08-03T04:28:53;13.00;;;2.60;;
36815;SDS011;22760;51.910;4.474;2022-08-03T04:31:21;14.02;;;3.03;;
36815;SDS011;22760;51.910;4.474;2022-08-03T04:33:49;17.75;;;2.95;;
36815;SDS011;22760;51.910;4.474;2022-08-03T04:36:18;18.13;;;3.55;;
36815;SDS011;22760;51.910;4.474;2022-08-03T04:38:54;14.80;;;3.38;;
36815;SDS011;22760;51.910;4.474;2022-08-03T04:41:25;7.75;;;3.00;;
36815;SDS011;22760;51.910;4.474;2022-08-03T04:43:55;11.13;;;3.00;;
36815;SDS011;22760;51.910;4.474;2022-08-03T04:46:25;19.70;;;3.90;;
36815;SDS011;22760;51.910;4.474;2022-08-03T04:48:53;12.35;;;3.13;;
36815;SDS011;22760;51.910;4.474;2022-08-03T04:51:20;12.60;;;3.47;;
36815;SDS011;22760;51.910;4.474;2022-08-03T04:53:48;15.88;;;3.35;;
36815;SDS011;22760;51.910;4.474;2022-08-03T04:56:14;10.70;;;3.05;;
36815;SDS011;22760;51.910;4.474;2022-08-03T04:58:41;14.38;;;3.50;;
36815;SDS011;22760;51.910;4.474;2022-08-03T05:01:09;19.98;;;3.80;;
36815;SDS011;22760;51.910;4.474;2022-08-03T05:03:36;14.60;;;3.55;;
36815;SDS011;22760;51.910;4.474;2022-08-03T05:06:03;19.42;;;3.53;;
36815;SDS011;22760;51.910;4.474;2022-08-03T05:08:30;16.08;;;3.63;;
36815;SDS011;22760;51.910;4.474;2022-08-03T05:10:57;11.50;;;2.97;;
36815;SDS011;22760;51.910;4.474;2022-08-03T05:13:23;15.98;;;3.88;;
36815;SDS011;22760;51.910;4.474;2022-08-03T05:15:50;13.93;;;3.55;;
36815;SDS011;22760;51.910;4.474;2022-08-03T05:18:18;14.32;;;3.47;;
36815;SDS011;22760;51.910;4.474;2022-08-03T05:20:45;13.43;;;3.67;;
36815;SDS011;22760;51.910;4.474;2022-08-03T05:23:12;21.73;;;4.28;;
36815;SDS011;22760;51.910;4.474;2022-08-03T05:25:39;16.02;;;3.10;;
36815;SDS011;22760;51.910;4.474;2022-08-03T05:28:06;14.63;;;3.58;;
36815;SDS011;22760;51.910;4.474;2022-08-03T05:30:32;22.83;;;4.05;;
36815;SDS011;22760;51.910;4.474;2022-08-03T05:33:00;10.98;;;3.65;;
36815;SDS011;22760;51.910;4.474;2022-08-03T05:35:29;17.83;;;4.45;;
36815;SDS011;22760;51.910;4.474;2022-08-03T05:37:56;24.05;;;5.38;;
36815;SDS011;22760;51.910;4.474;2022-08-03T05:40:23;19.67;;;5.30;;
36815;SDS011;22760;51.910;4.474;2022-08-03T05:42:50;17.05;;;4.57;;
36815;SDS011;22760;51.910;4.474;2022-08-03T05:45:17;17.05;;;4.20;;
36815;SDS011;22760;51.910;4.474;2022-08-03T05:47:44;18.60;;;5.38;;
36815;SDS011;22760;51.910;4.474;2022-08-03T05:50:11;19.95;;;5.80;;
36815;SDS011;22760;51.910;4.474;2022-08-03T05:52:39;20.52;;;5.90;;
36815;SDS011;22760;51.910;4.474;2022-08-03T05:55:07;19.80;;;6.63;;
36815;SDS011;22760;51.910;4.474;2022-08-03T05:57:35;18.90;;;5.95;;
36815;SDS011;22760;51.910;4.474;2022-08-03T06:00:03;22.85;;;7.10;;
36815;SDS011;22760;51.910;4.474;2022-08-03T06:02:31;18.70;;;6.75;;
36815;SDS011;22760;51.910;4.474;2022-08-03T06:04:57;19.05;;;6.63;;
36815;SDS011;22760;51.910;4.474;2022-08-03T06:07:24;20.55;;;7.93;;
36815;SDS011;22760;51.910;4.474;2022-08-03T06:09:53;20.00;;;6.88;;
36815;SDS011;22760;51.910;4.474;2022-08-03T06:12:20;21.05;;;6.90;;
36815;SDS011;22760;51.910;4.474;2022-08-03T06:14:46;20.67;;;5.97;;
36815;SDS011;22760;51.910;4.474;2022-08-03T06:17:13;16.63;;;5.72;;
36815;SDS011;22760;51.910;4.474;2022-08-03T06:19:40;18.00;;;5.60;;
36815;SDS011;22760;51.910;4.474;2022-08-03T06:22:07;21.95;;;6.25;;
36815;SDS011;22760;51.910;4.474;2022-08-03T06:24:33;26.08;;;7.43;;
36815;SDS011;22760;51.910;4.474;2022-08-03T06:27:01;24.20;;;7.63;;
36815;SDS011;22760;51.910;4.474;2022-08-03T06:29:28;20.13;;;8.13;;
36815;SDS011;22760;51.910;4.474;2022-08-03T06:31:55;19.98;;;7.70;;
36815;SDS011;22760;51.910;4.474;2022-08-03T06:34:22;20.90;;;9.38;;
36815;SDS011;22760;51.910;4.474;2022-08-03T06:36:49;25.58;;;8.95;;
36815;SDS011;22760;51.910;4.474;2022-08-03T06:39:16;20.60;;;9.20;;
36815;SDS011;22760;51.910;4.474;2022-08-03T06:41:43;30.80;;;11.57;;
36815;SDS011;22760;51.910;4.474;2022-08-03T06:44:11;23.23;;;10.15;;
36815;SDS011;22760;51.910;4.474;2022-08-03T06:46:38;23.15;;;10.75;;
36815;SDS011;22760;51.910;4.474;2022-08-03T06:49:06;39.90;;;11.10;;
36815;SDS011;22760;51.910;4.474;2022-08-03T06:51:33;29.00;;;11.32;;
36815;SDS011;22760;51.910;4.474;2022-08-03T06:54:00;26.13;;;10.40;;
36815;SDS011;22760;51.910;4.474;2022-08-03T06:56:26;20.58;;;9.70;;
36815;SDS011;22760;51.910;4.474;2022-08-03T06:58:53;27.23;;;10.40;;
36815;SDS011;22760;51.910;4.474;2022-08-03T07:01:21;19.73;;;9.98;;
36815;SDS011;22760;51.910;4.474;2022-08-03T07:03:48;16.83;;;8.75;;
36815;SDS011;22760;51.910;4.474;2022-08-03T07:06:15;20.25;;;9.43;;
36815;SDS011;22760;51.910;4.474;2022-08-03T07:08:42;30.52;;;12.40;;
36815;SDS011;22760;51.910;4.474;2022-08-03T07:11:08;25.15;;;11.80;;
36815;SDS011;22760;51.910;4.474;2022-08-03T07:13:35;25.17;;;11.55;;
36815;SDS011;22760;51.910;4.474;2022-08-03T07:16:02;28.67;;;10.57;;
36815;SDS011;22760;51.910;4.474;2022-08-03T07:18:30;31.23;;;11.52;;
36815;SDS011;22760;51.910;4.474;2022-08-03T07:20:57;25.50;;;11.10;;
36815;SDS011;22760;51.910;4.474;2022-08-03T07:23:24;19.40;;;10.60;;
36815;SDS011;22760;51.910;4.474;2022-08-03T07:25:51;34.42;;;13.95;;
36815;SDS011;22760;51.910;4.474;2022-08-03T07:28:18;24.25;;;11.32;;
36815;SDS011;22760;51.910;4.474;2022-08-03T07:30:45;26.55;;;11.68;;
36815;SDS011;22760;51.910;4.474;2022-08-03T07:33:12;29.08;;;12.25;;
36815;SDS011;22760;51.910;4.474;2022-08-03T07:35:40;27.08;;;12.80;;
36815;SDS011;22760;51.910;4.474;2022-08-03T07:38:07;27.60;;;11.07;;
36815;SDS011;22760;51.910;4.474;2022-08-03T07:40:34;24.13;;;10.15;;
36815;SDS011;22760;51.910;4.474;2022-08-03T07:43:00;21.27;;;10.00;;
36815;SDS011;22760;51.910;4.474;2022-08-03T07:45:28;18.17;;;10.00;;
36815;SDS011;22760;51.910;4.474;2022-08-03T07:47:55;24.42;;;9.25;;
36815;SDS011;22760;51.910;4.474;2022-08-03T07:50:21;28.83;;;10.35;;
36815;SDS011;22760;51.910;4.474;2022-08-03T07:52:50;24.48;;;11.38;;
36815;SDS011;22760;51.910;4.474;2022-08-03T07:55:19;27.85;;;11.32;;
36815;SDS011;22760;51.910;4.474;2022-08-03T07:57:46;24.30;;;11.52;;
36815;SDS011;22760;51.910;4.474;2022-08-03T08:00:23;21.80;;;9.60;;
36815;SDS011;22760;51.910;4.474;2022-08-03T08:02:50;20.65;;;9.25;;
36815;SDS011;22760;51.910;4.474;2022-08-03T08:05:17;28.25;;;10.05;;
36815;SDS011;22760;51.910;4.474;2022-08-03T08:07:44;18.80;;;9.68;;
36815;SDS011;22760;51.910;4.474;2022-08-03T08:10:12;25.60;;;10.63;;
36815;SDS011;22760;51.910;4.474;2022-08-03T08:12:39;23.90;;;9.23;;
36815;SDS011;22760;51.910;4.474;2022-08-03T08:15:07;24.38;;;10.15;;
36815;SDS011;22760;51.910;4.474;2022-08-03T08:17:40;17.58;;;8.82;;
36815;SDS011;22760;51.910;4.474;2022-08-03T08:20:08;24.30;;;10.00;;
36815;SDS011;22760;51.910;4.474;2022-08-03T08:22:36;18.75;;;8.63;;
36815;SDS011;22760;51.910;4.474;2022-08-03T08:25:03;21.08;;;8.63;;
36815;SDS011;22760;51.910;4.474;2022-08-03T08:27:31;18.45;;;9.10;;
36815;SDS011;22760;51.910;4.474;2022-08-03T08:29:58;22.75;;;9.27;;
36815;SDS011;22760;51.910;4.474;2022-08-03T08:32:25;15.95;;;7.68;;
36815;SDS011;22760;51.910;4.474;2022-08-03T08:34:51;20.05;;;8.60;;
36815;SDS011;22760;51.910;4.474;2022-08-03T08:37:18;15.23;;;8.20;;
36815;SDS011;22760;51.910;4.474;2022-08-03T08:39:45;21.20;;;8.65;;
36815;SDS011;22760;51.910;4.474;2022-08-03T08:42:11;17.88;;;7.95;;
36815;SDS011;22760;51.910;4.474;2022-08-03T08:44:41;18.67;;;8.35;;
36815;SDS011;22760;51.910;4.474;2022-08-03T08:47:08;14.57;;;7.68;;
36815;SDS011;22760;51.910;4.474;2022-08-03T08:49:35;16.02;;;7.95;;
36815;SDS011;22760;51.910;4.474;2022-08-03T08:52:05;16.85;;;8.18;;
36815;SDS011;22760;51.910;4.474;2022-08-03T08:54:34;19.92;;;8.98;;
36815;SDS011;22760;51.910;4.474;2022-08-03T08:57:05;17.42;;;9.02;;
36815;SDS011;22760;51.910;4.474;2022-08-03T08:59:33;19.10;;;9.13;;
36815;SDS011;22760;51.910;4.474;2022-08-03T09:02:02;22.13;;;9.40;;
36815;SDS011;22760;51.910;4.474;2022-08-03T09:04:29;17.42;;;9.27;;
36815;SDS011;22760;51.910;4.474;2022-08-03T09:06:56;21.73;;;9.55;;
36815;SDS011;22760;51.910;4.474;2022-08-03T09:09:22;16.20;;;7.85;;
36815;SDS011;22760;51.910;4.474;2022-08-03T09:11:49;17.15;;;7.63;;
36815;SDS011;22760;51.910;4.474;2022-08-03T09:14:16;18.58;;;8.18;;
36815;SDS011;22760;51.910;4.474;2022-08-03T09:16:56;19.60;;;8.73;;
36815;SDS011;22760;51.910;4.474;2022-08-03T09:19:27;16.05;;;7.93;;
36815;SDS011;22760;51.910;4.474;2022-08-03T09:22:06;20.35;;;7.55;;
36815;SDS011;22760;51.910;4.474;2022-08-03T09:24:35;20.77;;;7.63;;
36815;SDS011;22760;51.910;4.474;2022-08-03T09:27:03;17.10;;;8.00;;
36815;SDS011;22760;51.910;4.474;2022-08-03T09:29:36;22.88;;;7.95;;
36815;SDS011;22760;51.910;4.474;2022-08-03T09:32:03;18.27;;;8.25;;
36815;SDS011;22760;51.910;4.474;2022-08-03T09:34:32;16.63;;;6.55;;
36815;SDS011;22760;51.910;4.474;2022-08-03T09:36:59;22.30;;;7.22;;
36815;SDS011;22760;51.910;4.474;2022-08-03T09:39:26;18.05;;;7.65;;
36815;SDS011;22760;51.910;4.474;2022-08-03T09:42:05;15.80;;;7.00;;
36815;SDS011;22760;51.910;4.474;2022-08-03T09:44:34;17.65;;;8.05;;
36815;SDS011;22760;51.910;4.474;2022-08-03T09:47:02;18.48;;;7.20;;
36815;SDS011;22760;51.910;4.474;2022-08-03T09:49:29;14.05;;;7.10;;
36815;SDS011;22760;51.910;4.474;2022-08-03T09:51:57;15.25;;;6.90;;
36815;SDS011;22760;51.910;4.474;2022-08-03T09:54:28;26.50;;;8.07;;
36815;SDS011;22760;51.910;4.474;2022-08-03T09:56:55;19.05;;;7.40;;
36815;SDS011;22760;51.910;4.474;2022-08-03T09:59:23;17.85;;;6.20;;
36815;SDS011;22760;51.910;4.474;2022-08-03T10:01:51;17.83;;;7.20;;
36815;SDS011;22760;51.910;4.474;2022-08-03T10:04:18;25.23;;;7.88;;
36815;SDS011;22760;51.910;4.474;2022-08-03T10:07:01;19.25;;;8.63;;
36815;SDS011;22760;51.910;4.474;2022-08-03T10:09:30;18.33;;;7.78;;
36815;SDS011;22760;51.910;4.474;2022-08-03T10:11:56;19.52;;;8.15;;
36815;SDS011;22760;51.910;4.474;2022-08-03T10:14:33;15.30;;;7.22;;
36815;SDS011;22760;51.910;4.474;2022-08-03T10:17:02;21.85;;;8.00;;
36815;SDS011;22760;51.910;4.474;2022-08-03T10:19:29;15.32;;;5.95;;
36815;SDS011;22760;51.910;4.474;2022-08-03T10:21:57;17.88;;;8.23;;
36815;SDS011;22760;51.910;4.474;2022-08-03T10:24:29;17.08;;;7.20;;
36815;SDS011;22760;51.910;4.474;2022-08-03T10:27:00;16.13;;;7.07;;
36815;SDS011;22760;51.910;4.474;2022-08-03T10:29:28;15.93;;;7.03;;
36815;SDS011;22760;51.910;4.474;2022-08-03T10:34:33;18.30;;;6.22;;
36815;SDS011;22760;51.910;4.474;2022-08-03T10:37:07;13.57;;;6.45;;
36815;SDS011;22760;51.910;4.474;2022-08-03T10:39:37;19.02;;;6.60;;
36815;SDS011;22760;51.910;4.474;2022-08-03T10:42:17;16.90;;;7.68;;
36815;SDS011;22760;51.910;4.474;2022-08-03T10:44:46;15.63;;;6.40;;
36815;SDS011;22760;51.910;4.474;2022-08-03T10:47:14;19.05;;;7.28;;
36815;SDS011;22760;51.910;4.474;2022-08-03T10:49:41;19.15;;;7.15;;
36815;SDS011;22760;51.910;4.474;2022-08-03T10:52:11;17.02;;;5.50;;
36815;SDS011;22760;51.910;4.474;2022-08-03T10:54:39;22.27;;;5.47;;
36815;SDS011;22760;51.910;4.474;2022-08-03T11:00:10;15.82;;;4.75;;
36815;SDS011;22760;51.910;4.474;2022-08-03T11:05:34;16.98;;;5.18;;
36815;SDS011;22760;51.910;4.474;2022-08-03T11:10:48;16.55;;;5.25;;
36815;SDS011;22760;51.910;4.474;2022-08-03T11:13:17;15.90;;;5.22;;
36815;SDS011;22760;51.910;4.474;2022-08-03T11:15:47;18.48;;;6.15;;
36815;SDS011;22760;51.910;4.474;2022-08-03T11:18:16;13.20;;;5.00;;
36815;SDS011;22760;51.910;4.474;2022-08-03T11:20:44;13.90;;;5.18;;
36815;SDS011;22760;51.910;4.474;2022-08-03T11:23:15;27.58;;;6.40;;
36815;SDS011;22760;51.910;4.474;2022-08-03T11:28:40;14.02;;;5.03;;
36815;SDS011;22760;51.910;4.474;2022-08-03T11:34:21;18.58;;;5.50;;
36815;SDS011;22760;51.910;4.474;2022-08-03T11:39:45;18.45;;;4.78;;
36815;SDS011;22760;51.910;4.474;2022-08-03T11:45:07;19.33;;;3.97;;
36815;SDS011;22760;51.910;4.474;2022-08-03T11:47:38;19.00;;;5.10;;
36815;SDS011;22760;51.910;4.474;2022-08-03T11:50:06;12.15;;;4.30;;
36815;SDS011;22760;51.910;4.474;2022-08-03T11:52:34;12.95;;;3.92;;
36815;SDS011;22760;51.910;4.474;2022-08-03T11:55:15;16.92;;;4.22;;
36815;SDS011;22760;51.910;4.474;2022-08-03T11:57:45;16.10;;;4.13;;
36815;SDS011;22760;51.910;4.474;2022-08-03T12:00:23;10.75;;;3.50;;
36815;SDS011;22760;51.910;4.474;2022-08-03T12:02:59;16.73;;;3.95;;
36815;SDS011;22760;51.910;4.474;2022-08-03T12:05:44;13.02;;;3.00;;
36815;SDS011;22760;51.910;4.474;2022-08-03T12:08:13;11.77;;;3.13;;
36815;SDS011;22760;51.910;4.474;2022-08-03T12:10:45;13.02;;;3.17;;
36815;SDS011;22760;51.910;4.474;2022-08-03T12:13:15;9.68;;;3.05;;
36815;SDS011;22760;51.910;4.474;2022-08-03T12:15:47;16.30;;;3.67;;
36815;SDS011;22760;51.910;4.474;2022-08-03T12:18:16;9.90;;;3.58;;
36815;SDS011;22760;51.910;4.474;2022-08-03T12:20:45;16.15;;;3.25;;
36815;SDS011;22760;51.910;4.474;2022-08-03T12:23:13;9.65;;;2.67;;
36815;SDS011;22760;51.910;4.474;2022-08-03T12:25:41;10.88;;;3.22;;
36815;SDS011;22760;51.910;4.474;2022-08-03T12:28:10;10.00;;;2.40;;
36815;SDS011;22760;51.910;4.474;2022-08-03T12:30:43;11.57;;;2.55;;
36815;SDS011;22760;51.910;4.474;2022-08-03T12:33:12;11.23;;;2.85;;
36815;SDS011;22760;51.910;4.474;2022-08-03T12:35:45;10.85;;;2.38;;
36815;SDS011;22760;51.910;4.474;2022-08-03T12:38:18;13.27;;;2.90;;
36815;SDS011;22760;51.910;4.474;2022-08-03T12:40:54;9.43;;;2.63;;
36815;SDS011;22760;51.910;4.474;2022-08-03T12:43:25;11.48;;;2.40;;
36815;SDS011;22760;51.910;4.474;2022-08-03T12:46:07;11.90;;;3.38;;
36815;SDS011;22760;51.910;4.474;2022-08-03T12:48:35;9.18;;;2.17;;
36815;SDS011;22760;51.910;4.474;2022-08-03T12:51:08;5.68;;;2.20;;
36815;SDS011;22760;51.910;4.474;2022-08-03T12:53:36;10.32;;;2.30;;
36815;SDS011;22760;51.910;4.474;2022-08-03T12:56:03;11.93;;;2.33;;
36815;SDS011;22760;51.910;4.474;2022-08-03T12:58:31;9.00;;;2.53;;
36815;SDS011;22760;51.910;4.474;2022-08-03T13:00:59;10.10;;;2.58;;
36815;SDS011;22760;51.910;4.474;2022-08-03T13:03:27;6.22;;;2.45;;
36815;SDS011;22760;51.910;4.474;2022-08-03T13:05:54;9.23;;;2.22;;
36815;SDS011;22760;51.910;4.474;2022-08-03T13:08:22;11.18;;;2.25;;
36815;SDS011;22760;51.910;4.474;2022-08-03T13:10:50;6.30;;;2.40;;
36815;SDS011;22760;51.910;4.474;2022-08-03T13:13:17;9.88;;;2.15;;
36815;SDS011;22760;51.910;4.474;2022-08-03T13:15:45;7.50;;;2.58;;
36815;SDS011;22760;51.910;4.474;2022-08-03T13:18:12;6.50;;;2.13;;
36815;SDS011;22760;51.910;4.474;2022-08-03T13:20:40;9.90;;;2.75;;
36815;SDS011;22760;51.910;4.474;2022-08-03T13:23:07;5.38;;;2.38;;
36815;SDS011;22760;51.910;4.474;2022-08-03T13:25:34;11.68;;;2.35;;
36815;SDS011;22760;51.910;4.474;2022-08-03T13:28:01;10.52;;;2.33;;
36815;SDS011;22760;51.910;4.474;2022-08-03T13:30:30;9.20;;;2.35;;
36815;SDS011;22760;51.910;4.474;2022-08-03T13:32:57;8.18;;;1.83;;
36815;SDS011;22760;51.910;4.474;2022-08-03T13:35:24;7.10;;;1.80;;
36815;SDS011;22760;51.910;4.474;2022-08-03T13:37:52;7.53;;;2.08;;
36815;SDS011;22760;51.910;4.474;2022-08-03T13:40:19;7.95;;;1.70;;
36815;SDS011;22760;51.910;4.474;2022-08-03T13:42:46;5.50;;;1.55;;
36815;SDS011;22760;51.910;4.474;2022-08-03T13:45:13;5.75;;;1.60;;
36815;SDS011;22760;51.910;4.474;2022-08-03T13:47:40;7.93;;;1.52;;
36815;SDS011;22760;51.910;4.474;2022-08-03T13:50:06;4.00;;;1.80;;
36815;SDS011;22760;51.910;4.474;2022-08-03T13:52:34;6.00;;;1.90;;
36815;SDS011;22760;51.910;4.474;2022-08-03T13:55:03;3.97;;;1.38;;
36815;SDS011;22760;51.910;4.474;2022-08-03T13:57:31;11.20;;;1.80;;
36815;SDS011;22760;51.910;4.474;2022-08-03T13:59:58;7.03;;;1.48;;
36815;SDS011;22760;51.910;4.474;2022-08-03T14:02:25;5.80;;;1.92;;
36815;SDS011;22760;51.910;4.474;2022-08-03T14:04:52;7.80;;;1.70;;
36815;SDS011;22760;51.910;4.474;2022-08-03T14:07:19;5.03;;;1.50;;
36815;SDS011;22760;51.910;4.474;2022-08-03T14:09:46;4.18;;;1.75;;
36815;SDS011;22760;51.910;4.474;2022-08-03T14:12:14;4.95;;;1.40;;
36815;SDS011;22760;51.910;4.474;2022-08-03T14:14:41;5.55;;;1.30;;
36815;SDS011;22760;51.910;4.474;2022-08-03T14:17:07;4.43;;;1.67;;
36815;SDS011;22760;51.910;4.474;2022-08-03T14:19:34;4.75;;;1.73;;
36815;SDS011;22760;51.910;4.474;2022-08-03T14:22:01;3.78;;;1.55;;
36815;SDS011;22760;51.910;4.474;2022-08-03T14:24:28;5.88;;;1.40;;
36815;SDS011;22760;51.910;4.474;2022-08-03T14:26:55;7.30;;;1.80;;
36815;SDS011;22760;51.910;4.474;2022-08-03T14:29:23;5.43;;;1.40;;
36815;SDS011;22760;51.910;4.474;2022-08-03T14:31:49;3.63;;;1.58;;
36815;SDS011;22760;51.910;4.474;2022-08-03T14:34:16;5.50;;;1.20;;
36815;SDS011;22760;51.910;4.474;2022-08-03T14:36:43;7.00;;;1.58;;
36815;SDS011;22760;51.910;4.474;2022-08-03T14:39:11;3.72;;;1.30;;
36815;SDS011;22760;51.910;4.474;2022-08-03T14:41:38;7.05;;;1.60;;
36815;SDS011;22760;51.910;4.474;2022-08-03T14:44:05;5.28;;;1.77;;
36815;SDS011;22760;51.910;4.474;2022-08-03T14:46:33;6.57;;;1.45;;
36815;SDS011;22760;51.910;4.474;2022-08-03T14:49:00;11.05;;;1.77;;
36815;SDS011;22760;51.910;4.474;2022-08-03T14:51:26;4.75;;;1.70;;
36815;SDS011;22760;51.910;4.474;2022-08-03T14:53:53;5.20;;;1.08;;
36815;SDS011;22760;51.910;4.474;2022-08-03T14:56:20;6.95;;;1.85;;
36815;SDS011;22760;51.910;4.474;2022-08-03T14:58:47;7.80;;;1.50;;
36815;SDS011;22760;51.910;4.474;2022-08-03T15:01:14;7.55;;;1.65;;
36815;SDS011;22760;51.910;4.474;2022-08-03T15:03:42;17.30;;;2.15;;
36815;SDS011;22760;51.910;4.474;2022-08-03T15:06:10;5.05;;;1.58;;
36815;SDS011;22760;51.910;4.474;2022-08-03T15:08:37;6.75;;;1.75;;
36815;SDS011;22760;51.910;4.474;2022-08-03T15:11:04;6.13;;;1.60;;